createdAt,value
2019-01-21T08:24:49.911Z,620
2019-01-21T08:25:59.890Z,780
2019-01-21T08:27:09.861Z,816
2019-01-21T08:28:19.830Z,864
2019-01-21T08:29:29.855Z,904
2019-01-21T08:30:39.828Z,944
2019-01-21T08:31:49.797Z,972
2019-01-21T08:32:59.767Z,996
2019-01-21T08:34:09.741Z,1016
2019-01-21T08:35:19.714Z,1036
2019-01-21T08:36:29.696Z,1048
2019-01-21T08:37:39.674Z,1068
2019-01-21T08:38:49.646Z,1088
2019-01-21T08:39:59.417Z,1100
2019-01-21T08:41:09.493Z,1112
2019-01-21T08:42:19.472Z,1124
2019-01-21T08:43:29.447Z,1140
2019-01-21T08:44:39.422Z,1160
2019-01-21T08:45:49.405Z,1180
2019-01-21T08:46:59.480Z,1192
2019-01-21T08:48:09.466Z,1200
2019-01-21T08:49:19.446Z,1204
2019-01-21T08:50:29.425Z,1208
2019-01-21T08:51:40.508Z,1216
2019-01-21T08:52:50.480Z,1232
2019-01-21T08:54:00.449Z,1240
2019-01-21T08:55:10.423Z,1244
2019-01-21T08:56:20.396Z,1248
2019-01-21T08:57:30.387Z,1252
2019-01-21T08:58:40.459Z,1252
2019-01-21T08:59:50.429Z,1256
2019-01-21T09:01:00.409Z,1260
2019-01-21T09:02:10.377Z,1260
2019-01-21T09:03:21.757Z,1268
2019-01-21T09:04:31.534Z,1276
2019-01-21T09:05:41.507Z,1280
2019-01-21T09:06:51.481Z,1284
2019-01-21T09:08:01.452Z,1296
2019-01-21T09:09:11.436Z,1312
2019-01-21T09:10:21.416Z,1332
2019-01-21T09:11:31.408Z,1356
2019-01-21T09:12:41.387Z,1372
2019-01-21T09:13:51.358Z,1392
2019-01-21T09:15:01.335Z,1412
2019-01-21T09:16:11.314Z,1436
2019-01-21T09:17:21.289Z,1464
2019-01-21T09:18:31.262Z,1488
2019-01-21T09:19:44.379Z,1500
2019-01-21T09:20:54.359Z,1504
2019-01-21T09:22:04.478Z,1520
2019-01-21T09:23:14.450Z,1540
2019-01-21T09:24:24.169Z,1544
2019-01-21T09:25:34.146Z,1544
2019-01-21T09:26:44.141Z,1548
2019-01-21T09:27:54.286Z,1568
2019-01-21T09:29:04.432Z,1596
2019-01-21T09:30:14.412Z,1608
2019-01-21T09:31:24.395Z,1612
2019-01-21T09:32:34.374Z,1624
2019-01-21T09:33:44.500Z,1628
2019-01-21T09:34:54.484Z,1648
2019-01-21T09:36:04.465Z,1664
2019-01-21T09:37:14.441Z,1684
2019-01-21T09:38:24.455Z,1712
2019-01-21T09:39:34.577Z,1740
2019-01-21T09:40:44.556Z,1748
2019-01-21T09:41:54.538Z,1768
2019-01-21T09:43:04.514Z,1804
2019-01-21T09:44:14.490Z,1844
2019-01-21T09:45:24.521Z,1904
2019-01-21T09:46:34.495Z,2008
2019-01-21T09:47:44.472Z,2124
2019-01-21T09:48:54.450Z,2188
2019-01-21T09:50:04.429Z,2212
2019-01-21T09:51:14.552Z,2212
2019-01-21T09:52:24.529Z,2208
2019-01-21T09:53:34.503Z,2224
2019-01-21T09:54:44.483Z,2260
2019-01-21T09:55:54.459Z,2304
2019-01-21T09:57:04.491Z,2288
2019-01-21T09:58:14.463Z,2320
2019-01-21T09:59:24.435Z,2404
2019-01-21T10:00:34.417Z,2464
2019-01-21T10:01:44.401Z,2612
2019-01-21T10:02:54.475Z,2812
2019-01-21T10:04:04.450Z,3028
2019-01-21T10:05:14.452Z,3272
2019-01-21T10:06:24.431Z,3508
2019-01-21T10:07:34.404Z,3712
2019-01-21T10:08:44.495Z,3940
2019-01-21T10:10:00.037Z,4120
2019-01-21T10:11:10.511Z,4256
2019-01-21T10:12:20.238Z,4408
2019-01-21T10:13:30.216Z,4524
2019-01-21T10:14:40.289Z,4580
2019-01-21T10:15:50.265Z,4680
2019-01-21T10:17:00.242Z,4888
2019-01-21T10:18:10.258Z,5196
2019-01-21T10:19:20.231Z,5892
2019-01-21T10:20:30.210Z,6256
2019-01-21T10:21:40.197Z,6384
2019-01-21T10:22:50.177Z,6464
2019-01-21T10:24:00.165Z,6388
2019-01-21T10:25:10.148Z,6216
2019-01-21T10:26:20.176Z,5932
2019-01-21T10:27:30.148Z,6152
2019-01-21T10:28:40.121Z,5516
2019-01-21T10:29:50.097Z,5308
2019-01-21T10:30:59.818Z,5144
2019-01-21T10:32:09.944Z,5208
2019-01-21T10:33:19.934Z,5304
2019-01-21T10:34:30.878Z,5396
2019-01-21T10:35:40.854Z,5400
2019-01-21T10:36:50.838Z,5272
2019-01-21T10:38:00.965Z,5096
2019-01-21T10:39:10.943Z,4980
2019-01-21T10:40:21.827Z,4892
2019-01-21T10:41:31.803Z,4816
2019-01-21T10:42:41.782Z,4768
2019-01-21T10:43:51.758Z,4780
2019-01-21T10:45:01.751Z,4864
2019-01-21T10:46:13.296Z,5000
2019-01-21T10:47:23.276Z,5148
2019-01-21T10:48:33.248Z,5292
2019-01-21T10:49:43.273Z,5328
2019-01-21T10:50:53.253Z,5340
2019-01-21T10:52:03.237Z,5472
2019-01-21T10:53:13.219Z,5688
2019-01-21T10:54:23.199Z,5888
2019-01-21T10:55:33.279Z,6024
2019-01-21T10:56:43.256Z,6132
2019-01-21T10:57:53.240Z,6188
2019-01-21T10:59:03.220Z,6068
2019-01-21T11:00:13.211Z,5780
2019-01-21T11:01:23.290Z,5372
2019-01-21T11:02:33.266Z,4996
2019-01-21T11:03:43.244Z,4768
2019-01-21T11:04:53.219Z,4728
2019-01-21T11:06:03.204Z,4872
2019-01-21T11:07:13.031Z,5508
2019-01-21T11:08:23.017Z,4644
2019-01-21T11:09:33.800Z,4468
2019-01-21T11:10:43.777Z,4180
2019-01-21T11:11:58.800Z,4036
2019-01-21T11:13:08.827Z,4036
2019-01-21T11:14:19.676Z,4096
2019-01-21T11:15:29.656Z,4252
2019-01-21T11:16:39.642Z,4624
2019-01-21T11:17:49.290Z,5244
2019-01-21T11:18:59.268Z,5732
2019-01-21T11:20:11.072Z,5992
2019-01-21T11:21:21.048Z,9860
2019-01-21T11:22:30.773Z,12148
2019-01-21T11:23:40.755Z,18240
2019-01-21T11:24:50.858Z,7796
2019-01-21T11:26:00.842Z,7136
2019-01-21T11:27:10.816Z,7232
2019-01-21T11:28:20.794Z,7128
2019-01-21T11:29:30.780Z,7472
2019-01-21T11:30:40.859Z,8776
2019-01-21T11:31:50.841Z,16896
2019-01-21T11:33:01.664Z,19488
2019-01-21T11:34:11.647Z,19136
2019-01-21T11:35:21.629Z,18496
2019-01-21T11:36:31.662Z,19744
2019-01-21T11:37:41.650Z,19424
2019-01-21T11:38:51.641Z,20384
2019-01-21T11:40:01.625Z,20672
2019-01-21T11:41:11.606Z,19392
2019-01-21T11:42:21.640Z,10000
2019-01-21T11:43:31.774Z,6764
2019-01-21T11:44:41.770Z,7432
2019-01-21T11:45:51.757Z,16672
2019-01-21T11:47:01.737Z,20128
2019-01-21T11:48:11.761Z,20192
2019-01-21T11:49:21.740Z,20224
2019-01-21T11:50:31.538Z,18080
2019-01-21T11:51:41.593Z,17856
2019-01-21T11:52:51.576Z,19456
2019-01-21T11:54:01.307Z,19904
2019-01-21T11:55:11.289Z,20128
2019-01-21T11:56:21.273Z,20032
2019-01-21T11:57:31.255Z,19680
2019-01-21T11:58:41.239Z,19872
2019-01-21T11:59:51.331Z,20160
2019-01-21T12:01:01.317Z,20768
2019-01-21T12:02:11.299Z,21984
2019-01-21T12:03:25.971Z,22912
2019-01-21T12:04:36.049Z,22944
2019-01-21T12:05:46.079Z,24224
2019-01-21T12:06:56.073Z,22912
2019-01-21T12:08:06.061Z,19104
2019-01-21T12:09:16.049Z,16160
2019-01-21T12:10:26.040Z,15360
2019-01-21T12:11:36.126Z,14016
2019-01-21T12:12:46.121Z,12500
2019-01-21T12:13:56.108Z,12072
2019-01-21T12:15:06.095Z,11976
2019-01-21T12:16:16.081Z,11848
2019-01-21T12:17:26.117Z,11932
2019-01-21T12:18:36.102Z,11776
2019-01-21T12:19:46.087Z,11544
2019-01-21T12:20:56.075Z,11552
2019-01-21T12:22:06.106Z,11460
2019-01-21T12:23:16.194Z,11364
2019-01-21T12:24:26.187Z,11224
2019-01-21T12:25:36.174Z,11200
2019-01-21T12:26:46.162Z,11084
2019-01-21T12:27:56.156Z,11108
2019-01-21T12:29:06.854Z,11120
2019-01-21T12:30:16.845Z,11032
2019-01-21T12:31:26.854Z,10976
2019-01-21T12:32:36.845Z,10936
2019-01-21T12:33:46.580Z,10888
2019-01-21T12:34:56.838Z,10808
2019-01-21T12:36:06.826Z,10752
2019-01-21T12:37:16.814Z,10688
2019-01-21T12:38:26.802Z,10600
2019-01-21T12:39:36.789Z,10536
2019-01-21T12:40:46.830Z,10484
2019-01-21T12:41:56.820Z,10436
2019-01-21T12:43:06.806Z,10368
2019-01-21T12:44:16.795Z,10332
2019-01-21T12:45:26.785Z,10300
2019-01-21T12:46:36.872Z,10272
2019-01-21T12:47:47.182Z,10236
2019-01-21T12:48:57.170Z,10244
2019-01-21T12:50:07.208Z,10216
2019-01-21T12:51:17.203Z,10196
2019-01-21T12:52:27.368Z,10192
2019-01-21T12:53:37.365Z,10328
2019-01-21T12:54:47.683Z,10320
2019-01-21T12:55:57.684Z,10224
2019-01-21T12:57:07.347Z,10148
2019-01-21T12:58:17.391Z,10112
2019-01-21T12:59:27.502Z,10116
2019-01-21T13:00:37.494Z,10056
2019-01-21T13:01:47.495Z,9996
2019-01-21T13:02:57.483Z,9940
2019-01-21T13:04:07.521Z,9924
2019-01-21T13:05:17.535Z,9872
2019-01-21T13:06:27.523Z,9804
2019-01-21T13:07:37.185Z,9772
2019-01-21T13:08:47.175Z,9724
2019-01-21T13:09:57.189Z,9672
2019-01-21T13:11:07.176Z,9672
2019-01-21T13:12:17.169Z,9660
2019-01-21T13:13:27.160Z,9692
2019-01-21T13:14:37.146Z,9828
2019-01-21T13:15:47.135Z,9936
2019-01-21T13:16:57.123Z,9976
2019-01-21T13:18:07.115Z,10064
2019-01-21T13:19:16.783Z,10332
2019-01-21T13:20:32.949Z,10428
2019-01-21T13:21:42.987Z,10524
2019-01-21T13:22:58.446Z,10816
2019-01-21T13:24:08.433Z,10464
2019-01-21T13:25:18.426Z,10160
2019-01-21T13:26:28.415Z,9912
2019-01-21T13:27:38.552Z,9708
2019-01-21T13:28:48.543Z,9508
2019-01-21T13:29:58.529Z,9420
2019-01-21T13:31:10.113Z,9412
2019-01-21T13:32:20.100Z,9088
2019-01-21T13:33:30.189Z,7856
2019-01-21T13:34:40.176Z,5764
2019-01-21T13:35:50.163Z,4712
2019-01-21T13:37:00.149Z,4648
2019-01-21T13:38:10.186Z,4288
2019-01-21T13:39:20.228Z,3504
2019-01-21T13:40:30.219Z,3572
2019-01-21T13:41:40.204Z,3176
2019-01-21T13:42:50.239Z,2748
2019-01-21T13:44:00.224Z,2612
2019-01-21T13:45:10.261Z,2508
2019-01-21T13:46:20.256Z,2900
2019-01-21T13:47:30.245Z,3120
2019-01-21T13:48:40.227Z,2848
2019-01-21T13:49:50.545Z,2976
2019-01-21T13:51:00.582Z,3312
2019-01-21T13:52:10.249Z,3680
2019-01-21T13:53:20.230Z,3368
2019-01-21T13:54:30.216Z,2848
2019-01-21T13:55:40.197Z,2508
2019-01-21T13:56:50.337Z,2252
2019-01-21T13:58:00.071Z,2140
2019-01-21T13:59:10.059Z,1992
2019-01-21T14:00:20.040Z,1912
2019-01-21T14:01:30.022Z,1872
2019-01-21T14:02:40.102Z,1840
2019-01-21T14:03:50.084Z,1812
2019-01-21T14:05:00.143Z,1768
2019-01-21T14:06:10.146Z,1724
2019-01-21T14:07:20.126Z,1688
2019-01-21T14:08:30.162Z,1652
2019-01-21T14:09:40.140Z,1616
2019-01-21T14:10:50.121Z,1576
2019-01-21T14:12:00.098Z,1540
2019-01-21T14:13:10.081Z,1504
2019-01-21T14:14:20.158Z,1476
2019-01-21T14:15:30.140Z,1440
2019-01-21T14:16:40.117Z,1408
2019-01-21T14:17:50.096Z,1376
2019-01-21T14:19:00.072Z,1344
2019-01-21T14:20:10.105Z,1308
2019-01-21T14:21:24.400Z,1272
2019-01-21T14:22:34.377Z,1236
2019-01-21T14:23:44.356Z,1204
2019-01-21T14:24:54.335Z,1168
2019-01-21T14:26:04.414Z,1132
2019-01-21T14:27:14.390Z,1100
2019-01-21T14:28:24.371Z,1064
2019-01-21T14:29:34.344Z,1028
2019-01-21T14:30:44.371Z,996
2019-01-21T14:31:54.519Z,964
2019-01-21T14:33:04.498Z,936
2019-01-21T14:34:14.478Z,904
2019-01-21T14:35:24.452Z,876
2019-01-21T14:36:34.429Z,848
2019-01-21T14:37:44.606Z,816
2019-01-21T14:38:54.584Z,788
2019-01-21T14:40:04.558Z,752
2019-01-21T14:41:14.531Z,720
2019-01-21T14:42:24.511Z,684
2019-01-21T14:43:35.719Z,648
2019-01-21T14:44:45.775Z,616
2019-01-21T14:45:55.751Z,584
2019-01-21T14:47:05.727Z,556
2019-01-21T14:48:15.707Z,524
2019-01-21T14:49:25.783Z,492
2019-01-21T14:50:35.776Z,468
2019-01-21T14:51:45.782Z,440
2019-01-21T14:52:55.782Z,412
2019-01-21T14:54:05.565Z,388
2019-01-21T14:55:15.411Z,360
2019-01-21T14:56:25.424Z,336
2019-01-21T14:57:35.537Z,316
2019-01-21T14:58:45.554Z,292
2019-01-21T14:59:56.652Z,272
2019-01-21T15:01:06.776Z,252
2019-01-21T15:02:16.550Z,236
2019-01-21T15:03:26.480Z,216
2019-01-21T15:04:36.556Z,204
2019-01-21T15:05:46.739Z,184
2019-01-21T15:06:56.746Z,168
2019-01-21T15:08:06.991Z,156
2019-01-21T15:09:17.151Z,144
2019-01-21T15:10:27.358Z,132
2019-01-21T15:11:37.593Z,116
2019-01-21T15:12:47.888Z,104
2019-01-21T15:13:58.001Z,96
2019-01-21T15:15:08.109Z,88
2019-01-21T15:16:18.243Z,76
2019-01-21T15:17:28.804Z,72
2019-01-21T15:18:39.113Z,60
2019-01-21T15:19:49.350Z,52
2019-01-21T15:21:04.767Z,48
2019-01-21T15:22:14.959Z,44
2019-01-21T15:23:25.086Z,40
2019-01-21T15:24:35.304Z,32
2019-01-21T15:25:45.409Z,28
2019-01-21T15:26:55.502Z,24
2019-01-21T15:28:05.729Z,24
2019-01-21T15:29:15.977Z,16
2019-01-21T15:30:26.249Z,20
2019-01-21T15:31:37.395Z,16
2019-01-21T15:32:47.516Z,12
2019-01-21T15:33:57.792Z,8
2019-01-21T15:35:07.960Z,8
2019-01-21T15:36:18.107Z,8
2019-01-21T15:37:28.129Z,8
2019-01-21T15:38:38.256Z,4
2019-01-21T15:39:48.276Z,8
2019-01-21T15:40:58.081Z,4
2019-01-21T15:42:08.276Z,4
2019-01-21T15:43:18.492Z,0
2019-01-21T15:44:28.633Z,4
2019-01-21T15:45:38.816Z,4
2019-01-21T15:46:48.924Z,4
2019-01-21T15:47:59.480Z,4
2019-01-21T15:49:09.460Z,4
2019-01-21T15:50:19.435Z,0
2019-01-21T15:51:29.416Z,0
2019-01-21T15:52:39.401Z,0
2019-01-21T15:53:49.478Z,0
2019-01-21T15:54:59.456Z,0
2019-01-21T15:56:10.930Z,0
2019-01-21T15:57:21.006Z,0
2019-01-21T15:58:31.847Z,0
2019-01-21T15:59:41.867Z,0
2019-01-21T16:00:51.846Z,0
2019-01-21T16:02:01.822Z,0
2019-01-21T16:03:11.798Z,0
2019-01-21T16:04:21.773Z,0
2019-01-21T16:05:31.846Z,0
2019-01-21T16:06:41.822Z,0
2019-01-21T16:07:51.792Z,0
2019-01-21T16:09:04.645Z,0
2019-01-21T16:10:14.616Z,0
2019-01-21T16:11:24.639Z,0
2019-01-21T16:12:34.612Z,0
2019-01-21T16:13:44.581Z,0
2019-01-21T16:14:54.550Z,0
2019-01-21T16:16:04.520Z,0
2019-01-21T16:17:14.594Z,0
2019-01-21T16:18:24.567Z,0
2019-01-21T16:19:34.543Z,0
2019-01-21T16:20:44.517Z,0
2019-01-21T16:21:54.491Z,0
2019-01-21T16:23:04.477Z,0
2019-01-21T16:24:14.446Z,0
2019-01-21T16:25:24.421Z,0
2019-01-21T16:26:38.070Z,0
2019-01-21T16:27:48.041Z,0
2019-01-21T16:28:58.114Z,0
2019-01-21T16:30:08.094Z,0
2019-01-21T16:31:18.066Z,0
2019-01-21T16:32:28.039Z,0
2019-01-21T16:33:38.012Z,0
2019-01-21T16:34:48.044Z,0
2019-01-21T16:35:58.022Z,0
2019-01-21T16:37:07.746Z,0
2019-01-21T16:38:17.725Z,0
2019-01-21T16:39:27.709Z,0
2019-01-21T16:40:37.836Z,0
2019-01-21T16:41:49.020Z,0
2019-01-21T16:42:58.993Z,0
2019-01-21T16:44:09.022Z,0
2019-01-21T16:45:19.002Z,0
2019-01-21T16:46:29.129Z,0
2019-01-21T16:47:39.132Z,0
2019-01-21T16:48:49.126Z,0
2019-01-21T16:49:59.132Z,0
2019-01-21T16:51:09.104Z,0
2019-01-21T16:52:18.928Z,0
2019-01-21T16:53:28.902Z,0
2019-01-21T16:54:38.877Z,0
2019-01-21T16:55:48.847Z,0
2019-01-21T16:56:58.826Z,0
2019-01-21T16:58:08.953Z,0
2019-01-21T16:59:18.928Z,0
2019-01-21T17:00:28.913Z,0
2019-01-21T17:01:38.892Z,0
2019-01-21T17:02:48.871Z,0
2019-01-21T17:03:58.943Z,0
2019-01-21T17:05:08.916Z,0
2019-01-21T17:06:18.891Z,0
2019-01-21T17:07:28.864Z,0
2019-01-21T17:08:38.833Z,0
2019-01-21T17:09:48.861Z,0
2019-01-21T17:10:58.833Z,0
2019-01-21T17:12:08.812Z,0
2019-01-21T17:13:18.796Z,0
2019-01-21T17:14:28.777Z,0
2019-01-21T17:15:38.899Z,0
2019-01-21T17:16:48.874Z,0
2019-01-21T17:17:58.854Z,0
2019-01-21T17:19:08.828Z,0
2019-01-21T17:20:18.803Z,0
2019-01-21T17:21:32.029Z,0
2019-01-21T17:22:42.776Z,0
2019-01-21T17:23:52.748Z,0
2019-01-21T17:25:02.720Z,0
2019-01-21T17:26:12.692Z,0
2019-01-21T17:27:22.762Z,0
2019-01-21T17:28:32.734Z,0
2019-01-21T17:29:42.711Z,0
2019-01-21T17:30:52.684Z,0
2019-01-21T17:32:02.653Z,0
2019-01-21T17:33:12.748Z,0
2019-01-21T17:34:22.724Z,0
2019-01-21T17:35:32.699Z,0
2019-01-21T17:36:42.720Z,0
2019-01-21T17:37:52.693Z,0
2019-01-21T17:39:02.719Z,0
2019-01-21T17:40:12.687Z,0
2019-01-21T17:41:22.657Z,0
2019-01-21T17:42:32.629Z,0
2019-01-21T17:43:42.600Z,0
2019-01-21T17:44:52.620Z,0
2019-01-21T17:46:02.592Z,0
2019-01-21T17:47:12.563Z,0
2019-01-21T17:48:22.534Z,0
2019-01-21T17:49:32.504Z,0
2019-01-21T17:50:42.473Z,0
2019-01-21T17:51:52.444Z,0
2019-01-21T17:53:02.417Z,0
2019-01-21T17:54:12.388Z,0
2019-01-21T17:55:22.362Z,0
2019-01-21T17:56:32.434Z,0
2019-01-21T17:57:42.411Z,0
2019-01-21T17:58:52.391Z,0
2019-01-21T18:00:03.425Z,0
2019-01-21T18:01:13.436Z,0
2019-01-21T18:02:23.510Z,0
2019-01-21T18:03:34.826Z,0
2019-01-21T18:04:44.796Z,0
2019-01-21T18:05:54.770Z,0
2019-01-21T18:07:04.744Z,0
2019-01-21T18:08:14.763Z,0
2019-01-21T18:09:24.740Z,0
2019-01-21T18:10:34.713Z,0
2019-01-21T18:11:48.351Z,0
2019-01-21T18:12:58.332Z,0
2019-01-21T18:14:08.355Z,0
2019-01-21T18:15:18.330Z,0
2019-01-21T18:16:28.306Z,0
2019-01-21T18:17:38.287Z,0
2019-01-21T18:18:48.263Z,0
2019-01-21T18:19:58.285Z,0
2019-01-21T18:21:08.041Z,0
2019-01-21T18:22:18.011Z,0
2019-01-21T18:23:28.000Z,0
2019-01-21T18:24:37.982Z,0
2019-01-21T18:25:48.057Z,0
2019-01-21T18:26:58.034Z,0
2019-01-21T18:28:08.016Z,0
2019-01-21T18:29:18.009Z,0
2019-01-21T18:30:27.983Z,0
2019-01-21T18:31:38.056Z,0
2019-01-21T18:32:48.028Z,0
2019-01-21T18:33:58.035Z,0
2019-01-21T18:35:07.766Z,0
2019-01-21T18:36:17.978Z,0
2019-01-21T18:37:28.047Z,0
2019-01-21T18:38:38.021Z,0
2019-01-21T18:39:47.992Z,0
2019-01-21T18:40:57.969Z,0
2019-01-21T18:42:07.945Z,0
2019-01-21T18:43:18.019Z,0
2019-01-21T18:44:27.995Z,0
2019-01-21T18:45:37.976Z,0
2019-01-21T18:46:47.960Z,0
2019-01-21T18:47:57.934Z,0
2019-01-21T18:49:08.015Z,0
2019-01-21T18:50:17.986Z,0
2019-01-21T18:51:27.960Z,0
2019-01-21T18:52:37.933Z,0
2019-01-21T18:53:47.909Z,0
2019-01-21T18:54:57.879Z,0
2019-01-21T18:56:07.862Z,0
2019-01-21T18:57:17.517Z,0
2019-01-21T18:58:27.491Z,0
2019-01-21T18:59:37.465Z,0
2019-01-21T19:00:47.662Z,0
2019-01-21T19:01:57.853Z,0
2019-01-21T19:03:07.832Z,0
2019-01-21T19:04:17.814Z,0
2019-01-21T19:05:27.796Z,0
2019-01-21T19:06:37.819Z,0
2019-01-21T19:07:47.795Z,0
2019-01-21T19:08:57.769Z,0
2019-01-21T19:10:07.745Z,0
2019-01-21T19:11:17.718Z,0
2019-01-21T19:12:27.798Z,0
2019-01-21T19:13:37.771Z,0
2019-01-21T19:14:47.497Z,0
2019-01-21T19:15:57.471Z,0
2019-01-21T19:17:07.448Z,0
2019-01-21T19:18:17.609Z,0
2019-01-21T19:19:27.589Z,0
2019-01-21T19:20:37.560Z,0
2019-01-21T19:21:53.370Z,0
2019-01-21T19:23:03.668Z,0
2019-01-21T19:24:13.742Z,0
2019-01-21T19:25:23.723Z,0
2019-01-21T19:26:33.705Z,0
2019-01-21T19:27:43.692Z,0
2019-01-21T19:28:53.666Z,0
2019-01-21T19:30:03.689Z,0
2019-01-21T19:31:13.668Z,0
2019-01-21T19:32:23.639Z,0
2019-01-21T19:33:33.609Z,0
2019-01-21T19:34:43.587Z,0
2019-01-21T19:35:53.658Z,0
2019-01-21T19:37:03.636Z,0
2019-01-21T19:38:13.608Z,0
2019-01-21T19:39:23.585Z,0
2019-01-21T19:40:34.657Z,0
2019-01-21T19:41:44.678Z,0
2019-01-21T19:42:54.646Z,0
2019-01-21T19:44:04.628Z,0
2019-01-21T19:45:14.610Z,0
2019-01-21T19:46:24.579Z,0
2019-01-21T19:47:34.651Z,0
2019-01-21T19:48:44.628Z,0
2019-01-21T19:49:54.603Z,0
2019-01-21T19:51:04.325Z,0
2019-01-21T19:52:14.294Z,0
2019-01-21T19:53:24.365Z,0
2019-01-21T19:54:34.342Z,0
2019-01-21T19:55:44.314Z,0
2019-01-21T19:56:54.287Z,0
2019-01-21T19:58:04.268Z,0
2019-01-21T19:59:14.344Z,0
2019-01-21T20:00:24.319Z,0
2019-01-21T20:01:34.301Z,0
2019-01-21T20:02:44.541Z,0
2019-01-21T20:03:54.566Z,0
2019-01-21T20:05:04.589Z,0
2019-01-21T20:06:14.562Z,0
2019-01-21T20:07:24.621Z,0
2019-01-21T20:08:34.594Z,0
2019-01-21T20:09:44.589Z,0
2019-01-21T20:10:54.615Z,0
2019-01-21T20:12:04.590Z,0
2019-01-21T20:13:14.581Z,0
2019-01-21T20:14:24.556Z,0
2019-01-21T20:15:34.538Z,0
2019-01-21T20:16:45.948Z,0
2019-01-21T20:17:55.921Z,0
2019-01-21T20:19:05.897Z,0
2019-01-21T20:20:15.877Z,0
2019-01-21T20:21:25.848Z,0
2019-01-21T20:22:35.925Z,0
2019-01-21T20:23:45.899Z,0
2019-01-21T20:24:55.875Z,0
2019-01-21T20:26:05.853Z,0
2019-01-21T20:27:15.825Z,0
2019-01-21T20:28:25.915Z,0
2019-01-21T20:29:35.890Z,0
2019-01-21T20:30:45.866Z,0
2019-01-21T20:31:55.838Z,0
2019-01-21T20:33:05.810Z,0
2019-01-21T20:34:15.839Z,0
2019-01-21T20:35:25.823Z,0
2019-01-21T20:36:35.799Z,0
2019-01-21T20:37:45.778Z,0
2019-01-21T20:38:55.751Z,0
2019-01-21T20:40:05.827Z,0
2019-01-21T20:41:15.803Z,0
2019-01-21T20:42:25.780Z,0
2019-01-21T20:43:35.754Z,0
2019-01-21T20:44:45.731Z,0
2019-01-21T20:45:55.755Z,0
2019-01-21T20:47:05.764Z,0
2019-01-21T20:48:15.783Z,0
2019-01-21T20:49:25.772Z,0
2019-01-21T20:50:35.753Z,0
2019-01-21T20:51:45.840Z,0
2019-01-21T20:52:55.819Z,0
2019-01-21T20:54:05.797Z,0
2019-01-21T20:55:15.775Z,0
2019-01-21T20:56:25.759Z,0
2019-01-21T20:57:35.788Z,0
2019-01-21T20:58:45.955Z,0
2019-01-21T20:59:57.287Z,0
2019-01-21T21:01:07.284Z,0
2019-01-21T21:02:17.262Z,0
2019-01-21T21:03:27.284Z,0
2019-01-21T21:04:37.268Z,0
2019-01-21T21:05:47.247Z,0
2019-01-21T21:06:57.225Z,0
2019-01-21T21:08:07.203Z,0
2019-01-21T21:09:17.175Z,0
2019-01-21T21:10:27.154Z,0
2019-01-21T21:11:37.127Z,0
2019-01-21T21:12:47.106Z,0
2019-01-21T21:13:57.082Z,0
2019-01-21T21:15:07.108Z,0
2019-01-21T21:16:17.086Z,0
2019-01-21T21:17:27.066Z,0
2019-01-21T21:18:37.039Z,0
2019-01-21T21:19:47.025Z,0
2019-01-21T21:20:57.061Z,0
2019-01-21T21:22:07.044Z,0
2019-01-21T21:23:17.016Z,0
2019-01-21T21:24:28.156Z,0
2019-01-21T21:25:38.178Z,0
2019-01-21T21:26:48.289Z,0
2019-01-21T21:27:58.302Z,0
2019-01-21T21:29:08.351Z,0
2019-01-21T21:30:18.376Z,0
2019-01-21T21:31:28.413Z,0
2019-01-21T21:32:38.446Z,0
2019-01-21T21:33:48.462Z,0
2019-01-21T21:34:58.478Z,0
2019-01-21T21:36:08.502Z,0
2019-01-21T21:37:18.524Z,0
2019-01-21T21:38:28.384Z,0
2019-01-21T21:39:38.437Z,0
2019-01-21T21:40:48.889Z,0
2019-01-21T21:41:59.765Z,0
2019-01-21T21:43:10.879Z,0
2019-01-21T21:44:21.384Z,0
2019-01-21T21:45:32.824Z,0
2019-01-21T21:46:42.853Z,0
2019-01-21T21:47:52.889Z,0
2019-01-21T21:49:02.902Z,0
2019-01-21T21:50:12.977Z,0
2019-01-21T21:51:22.996Z,0
2019-01-21T21:52:34.947Z,0
2019-01-21T21:53:44.998Z,0
2019-01-21T21:54:55.017Z,0
2019-01-21T21:56:05.081Z,0
2019-01-21T21:57:15.470Z,0
2019-01-21T21:58:25.333Z,0
2019-01-21T21:59:35.350Z,0
2019-01-21T22:00:45.361Z,0
2019-01-21T22:01:55.466Z,0
2019-01-21T22:03:05.478Z,0
2019-01-21T22:04:15.512Z,0
2019-01-21T22:05:25.520Z,0
2019-01-21T22:06:35.528Z,0
2019-01-21T22:07:45.691Z,0
2019-01-21T22:08:56.554Z,0
2019-01-21T22:10:06.581Z,0
2019-01-21T22:11:16.603Z,0
2019-01-21T22:12:26.366Z,0
2019-01-21T22:13:36.480Z,0
2019-01-21T22:14:46.491Z,0
2019-01-21T22:15:56.509Z,0
2019-01-21T22:17:06.874Z,0
2019-01-21T22:18:17.639Z,0
2019-01-21T22:19:28.733Z,0
2019-01-21T22:20:39.208Z,0
2019-01-21T22:21:49.335Z,0
2019-01-21T22:22:59.340Z,0
2019-01-21T22:24:09.360Z,0
2019-01-21T22:25:19.432Z,0
2019-01-21T22:26:29.472Z,0
2019-01-21T22:27:39.528Z,0
2019-01-21T22:28:49.531Z,0
2019-01-21T22:29:59.554Z,0
2019-01-21T22:31:09.667Z,0
2019-01-21T22:32:19.685Z,0
2019-01-21T22:33:29.694Z,0
2019-01-21T22:34:39.699Z,0
2019-01-21T22:35:49.724Z,0
2019-01-21T22:36:59.846Z,0
2019-01-21T22:38:09.862Z,0
2019-01-21T22:39:19.892Z,0
2019-01-21T22:40:29.899Z,0
2019-01-21T22:41:39.906Z,0
2019-01-21T22:42:50.053Z,0
2019-01-21T22:44:00.075Z,0
2019-01-21T22:45:10.092Z,0
2019-01-21T22:46:20.109Z,0
2019-01-21T22:47:30.124Z,0
2019-01-21T22:48:40.240Z,0
2019-01-21T22:49:50.254Z,0
2019-01-21T22:51:00.295Z,0
2019-01-21T22:52:10.320Z,0
2019-01-21T22:53:20.355Z,0
2019-01-21T22:54:30.731Z,0
2019-01-21T22:55:42.839Z,0
2019-01-21T22:56:53.712Z,0
2019-01-21T22:58:03.993Z,0
2019-01-21T22:59:14.005Z,0
2019-01-21T23:00:24.131Z,0
2019-01-21T23:01:33.906Z,0
2019-01-21T23:02:43.920Z,0
2019-01-21T23:03:53.933Z,0
2019-01-21T23:05:03.992Z,0
2019-01-21T23:06:14.059Z,0
2019-01-21T23:07:24.071Z,0
2019-01-21T23:08:34.083Z,0
2019-01-21T23:09:44.117Z,0
2019-01-21T23:10:54.120Z,0
2019-01-21T23:12:04.246Z,0
2019-01-21T23:13:14.264Z,0
2019-01-21T23:14:24.284Z,0
2019-01-21T23:15:34.303Z,0
2019-01-21T23:16:44.329Z,0
2019-01-21T23:17:54.438Z,0
2019-01-21T23:19:04.490Z,0
2019-01-21T23:20:14.511Z,0
2019-01-21T23:21:24.567Z,0
2019-01-21T23:22:34.591Z,0
2019-01-21T23:23:44.426Z,0
2019-01-21T23:24:54.443Z,0
2019-01-21T23:26:04.446Z,0
2019-01-21T23:27:14.449Z,0
2019-01-21T23:28:24.473Z,0
2019-01-21T23:29:34.582Z,0
2019-01-21T23:30:44.584Z,0
2019-01-21T23:31:54.617Z,0
2019-01-21T23:33:04.902Z,0
2019-01-21T23:34:15.830Z,0
2019-01-21T23:35:27.118Z,0
2019-01-21T23:36:37.681Z,0
2019-01-21T23:37:47.935Z,0
2019-01-21T23:38:57.998Z,0
2019-01-21T23:40:08.026Z,0
2019-01-21T23:41:18.148Z,0
2019-01-21T23:42:28.176Z,0
2019-01-21T23:43:38.209Z,0
2019-01-21T23:44:48.230Z,0
2019-01-21T23:45:58.252Z,0
2019-01-21T23:47:08.388Z,0
2019-01-21T23:48:18.412Z,0
2019-01-21T23:49:28.168Z,0
2019-01-21T23:50:38.203Z,0
2019-01-21T23:51:48.224Z,0
2019-01-21T23:53:02.985Z,0
2019-01-21T23:54:13.001Z,0
2019-01-21T23:55:23.018Z,0
2019-01-21T23:56:33.027Z,0
2019-01-21T23:57:43.063Z,0
2019-01-21T23:58:53.141Z,0
